Time;durP1;ratioP1;P1;durP2;ratioP2;P2;SDS_P1;SDS_P2;PMS_P1;PMS_P2;Temp;Humidity;BMP_temperature;BMP_pressure;BME280_temperature;BME280_humidity;BME280_pressure;Samples;Min_cycle;Max_cycle;Signal;HPM_P1;HPM_P2
2023/07/21 00:00:30;;;;;;;5.68;3.92;;;16.20;99.90;;;;;;5114313;27;20051;-63
2023/07/21 00:02:57;;;;;;;8.90;4.28;;;16.20;99.90;;;;;;5132820;27;20049;-63
2023/07/21 00:05:24;;;;;;;7.30;3.45;;;16.30;99.90;;;;;;5131458;27;20039;-63
2023/07/21 00:07:51;;;;;;;8.45;3.53;;;16.30;99.90;;;;;;5130781;27;20043;-63
2023/07/21 00:10:18;;;;;;;7.85;3.70;;;16.30;99.90;;;;;;5131509;27;20043;-63
2023/07/21 00:12:48;;;;;;;7.78;3.70;;;16.30;99.90;;;;;;5133025;27;20047;-63
2023/07/21 00:15:18;;;;;;;5.57;3.40;;;16.30;99.90;;;;;;5115568;27;20053;-63
2023/07/21 00:17:50;;;;;;;5.53;3.50;;;16.40;99.90;;;;;;5130674;27;20640;-63
2023/07/21 00:20:21;;;;;;;11.57;3.25;;;16.40;99.90;;;;;;5134446;27;20087;-63
2023/07/21 00:22:49;;;;;;;11.82;3.60;;;16.40;99.90;;;;;;5124480;27;20070;-63
2023/07/21 00:25:16;;;;;;;5.03;3.45;;;16.50;99.90;;;;;;5134022;27;20039;-63
2023/07/21 00:27:44;;;;;;;5.03;3.30;;;16.50;99.90;;;;;;5132919;27;20104;-63
2023/07/21 00:30:11;;;;;;;7.43;3.92;;;16.50;99.90;;;;;;5115306;27;20479;-63
2023/07/21 00:32:39;;;;;;;;;;;16.60;99.90;;;;;;5130448;27;20036;-63
2023/07/21 00:35:08;;;;;;;5.15;3.90;;;16.60;99.90;;;;;;5131737;27;19919;-63
2023/07/21 00:37:36;;;;;;;5.03;3.70;;;16.60;99.90;;;;;;5133277;27;20047;-63
2023/07/21 00:40:09;;;;;;;6.22;4.25;;;16.50;99.90;;;;;;5112632;27;20100;-63
2023/07/21 00:42:36;;;;;;;8.55;4.35;;;16.50;99.90;;;;;;5113122;27;20061;-63
2023/07/21 00:45:04;;;;;;;7.88;4.60;;;16.30;99.90;;;;;;5112361;27;20473;-63
2023/07/21 00:47:33;;;;;;;6.88;4.25;;;16.20;99.90;;;;;;5130086;27;20039;-63
2023/07/21 00:50:00;;;;;;;9.10;4.50;;;16.10;99.90;;;;;;5126618;27;20082;-63
2023/07/21 00:52:27;;;;;;;7.45;4.60;;;16.20;99.90;;;;;;5113314;27;20043;-63
2023/07/21 00:54:54;;;;;;;7.90;4.18;;;16.20;99.90;;;;;;5114192;27;20519;-62
2023/07/21 00:57:22;;;;;;;5.47;3.78;;;16.20;99.90;;;;;;5114530;27;20047;-63
2023/07/21 00:59:49;;;;;;;7.20;3.72;;;16.30;99.90;;;;;;5114380;27;20049;-63
2023/07/21 01:02:17;;;;;;;5.50;3.55;;;16.20;99.90;;;;;;5129856;27;20496;-63
2023/07/21 01:04:45;;;;;;;6.57;3.97;;;16.20;99.90;;;;;;5113409;27;20041;-63
2023/07/21 01:07:13;;;;;;;6.63;3.80;;;16.20;99.90;;;;;;5119618;27;20122;-63
2023/07/21 01:09:41;;;;;;;6.35;3.83;;;16.30;99.90;;;;;;5132615;27;20047;-63
2023/07/21 01:12:09;;;;;;;14.05;4.07;;;16.30;99.90;;;;;;5114103;27;20057;-63
2023/07/21 01:14:37;;;;;;;7.43;3.72;;;16.30;99.90;;;;;;5115310;27;20053;-63
2023/07/21 01:17:07;;;;;;;11.77;4.50;;;16.30;99.90;;;;;;5132457;27;20701;-61
2023/07/21 01:19:36;;;;;;;6.60;4.00;;;16.30;99.90;;;;;;5114441;27;20492;-63
2023/07/21 01:22:21;;;;;;;11.13;4.18;;;16.30;99.90;;;;;;5105781;27;20043;-62
2023/07/21 01:24:55;;;;;;;6.18;3.42;;;16.30;99.90;;;;;;5110893;27;20595;-63
2023/07/21 01:27:24;;;;;;;6.65;3.97;;;16.40;99.90;;;;;;5132548;27;20134;-63
2023/07/21 01:29:52;;;;;;;5.95;3.92;;;16.40;99.90;;;;;;5110317;27;20043;-63
2023/07/21 01:32:22;;;;;;;6.18;3.55;;;16.40;99.90;;;;;;5104624;27;20543;-63
2023/07/21 01:34:50;;;;;;;4.47;3.42;;;16.40;99.90;;;;;;5111497;27;20035;-63
2023/07/21 01:37:18;;;;;;;7.18;3.80;;;16.50;99.90;;;;;;5130415;27;20039;-63
2023/07/21 01:39:45;;;;;;;5.18;3.45;;;16.50;99.90;;;;;;5111332;27;20078;-63
2023/07/21 01:42:12;;;;;;;5.43;3.90;;;16.60;99.90;;;;;;5131930;27;20092;-63
2023/07/21 01:44:39;;;;;;;6.32;4.18;;;16.60;99.90;;;;;;5131431;27;20495;-63
2023/07/21 01:47:06;;;;;;;9.70;3.63;;;16.70;99.90;;;;;;5113054;27;20122;-62
2023/07/21 01:49:33;;;;;;;7.20;3.78;;;16.70;99.90;;;;;;5131779;27;20045;-63
2023/07/21 01:52:00;;;;;;;6.00;3.90;;;16.70;99.90;;;;;;5112289;28;20125;-63
2023/07/21 01:54:36;;;;;;;;;;;16.70;99.90;;;;;;5132972;27;20035;-63
2023/07/21 01:57:05;;;;;;;8.35;3.88;;;16.70;99.90;;;;;;5112587;28;19920;-63
2023/07/21 01:59:32;;;;;;;7.18;4.30;;;16.50;99.90;;;;;;5108915;28;20074;-63
2023/07/21 02:01:59;;;;;;;7.07;4.70;;;16.50;99.90;;;;;;5107758;28;20388;-64
2023/07/21 02:04:26;;;;;;;9.25;4.72;;;16.30;99.90;;;;;;5113892;28;20437;-63
2023/07/21 02:06:53;;;;;;;6.75;4.70;;;16.30;99.90;;;;;;5111505;27;20058;-64
2023/07/21 02:09:21;;;;;;;13.80;5.55;;;16.30;99.90;;;;;;5113581;28;20045;-63
2023/07/21 02:11:50;;;;;;;9.77;4.72;;;16.30;99.90;;;;;;5112725;28;20043;-63
2023/07/21 02:14:32;;;;;;;6.45;4.38;;;16.30;99.90;;;;;;5106334;28;20403;-63
2023/07/21 02:16:58;;;;;;;6.57;4.20;;;16.30;99.90;;;;;;5095068;28;20557;-63
2023/07/21 02:19:25;;;;;;;10.63;5.05;;;16.30;99.90;;;;;;5111878;28;20126;-63
2023/07/21 02:21:52;;;;;;;6.70;4.70;;;16.30;99.90;;;;;;5126737;27;20074;-63
2023/07/21 02:24:20;;;;;;;7.88;5.05;;;16.30;99.90;;;;;;5112553;28;20065;-63
2023/07/21 02:26:47;;;;;;;9.15;5.18;;;16.30;99.90;;;;;;5112608;28;20035;-63
2023/07/21 02:29:14;;;;;;;10.30;5.50;;;16.30;99.90;;;;;;5127078;27;20122;-63
2023/07/21 02:31:40;;;;;;;12.43;6.18;;;16.40;99.90;;;;;;5109975;28;20073;-63
2023/07/21 02:34:08;;;;;;;12.02;6.07;;;16.30;99.90;;;;;;5111325;28;20551;-62
2023/07/21 02:36:34;;;;;;;11.40;6.28;;;16.30;99.90;;;;;;5115190;27;20384;-63
2023/07/21 02:39:01;;;;;;;18.92;6.20;;;16.30;99.90;;;;;;5135580;27;20498;-62
2023/07/21 02:41:28;;;;;;;;;;;16.30;99.90;;;;;;5132827;27;20046;-63
2023/07/21 02:43:55;;;;;;;9.32;6.07;;;16.20;99.90;;;;;;5128453;27;19956;-63
2023/07/21 02:46:22;;;;;;;9.30;6.47;;;16.10;99.90;;;;;;5136083;27;20039;-63
2023/07/21 02:48:51;;;;;;;9.27;5.50;;;16.00;99.90;;;;;;5135573;27;20039;-63
2023/07/21 02:51:18;;;;;;;8.23;5.13;;;15.90;99.90;;;;;;5132644;27;20399;-63
2023/07/21 02:53:47;;;;;;;12.95;6.10;;;15.90;99.90;;;;;;5116895;27;20407;-63
2023/07/21 02:56:15;;;;;;;;;;;16.00;99.90;;;;;;5117205;27;20067;-63
2023/07/21 02:59:00;;;;;;;11.38;6.20;;;16.10;99.90;;;;;;5131759;27;19927;-63
2023/07/21 03:01:28;;;;;;;11.98;6.63;;;16.10;99.90;;;;;;5129063;27;20046;-63
2023/07/21 03:03:55;;;;;;;14.63;6.57;;;16.10;99.90;;;;;;5113505;27;20131;-63
2023/07/21 03:06:22;;;;;;;9.30;7.10;;;16.20;99.90;;;;;;5115958;27;20031;-63
2023/07/21 03:08:53;;;;;;;10.75;6.82;;;16.20;99.90;;;;;;5116415;27;20062;-63
2023/07/21 03:11:24;;;;;;;10.18;6.82;;;16.20;99.90;;;;;;5115486;27;20055;-63
2023/07/21 03:14:12;;;;;;;10.30;6.88;;;16.20;99.90;;;;;;5109570;27;20133;-63
2023/07/21 03:16:40;;;;;;;9.38;6.97;;;16.20;99.90;;;;;;5116600;27;20059;-63
2023/07/21 03:19:10;;;;;;;12.10;7.22;;;16.20;99.90;;;;;;5124068;27;20059;-63
2023/07/21 03:21:38;;;;;;;11.90;7.03;;;16.20;99.90;;;;;;5112491;27;20055;-63
2023/07/21 03:24:07;;;;;;;10.85;6.78;;;16.20;99.90;;;;;;5110013;27;20112;-63
2023/07/21 03:26:34;;;;;;;9.07;7.22;;;16.20;99.90;;;;;;5116671;27;20523;-63
2023/07/21 03:29:01;;;;;;;14.07;7.18;;;16.20;99.90;;;;;;5114879;27;20515;-63
2023/07/21 03:31:29;;;;;;;12.18;6.82;;;16.30;99.90;;;;;;5115443;27;20415;-63
2023/07/21 03:34:14;;;;;;;13.45;7.93;;;16.20;99.90;;;;;;5115871;27;20407;-63
2023/07/21 03:36:41;;;;;;;10.82;7.30;;;16.20;99.90;;;;;;5116828;27;20139;-63
2023/07/21 03:39:08;;;;;;;10.95;6.97;;;16.20;99.90;;;;;;5115385;27;20045;-63
2023/07/21 03:41:35;;;;;;;13.25;8.45;;;16.20;99.90;;;;;;5116505;27;20135;-63
2023/07/21 03:44:02;;;;;;;12.98;7.47;;;16.20;99.90;;;;;;5116140;27;20134;-63
2023/07/21 03:46:29;;;;;;;15.15;8.13;;;16.30;99.90;;;;;;5123736;27;20038;-63
2023/07/21 03:48:56;;;;;;;14.05;8.20;;;16.30;99.90;;;;;;5128317;27;20099;-63
2023/07/21 03:51:24;;;;;;;9.82;8.13;;;16.40;99.90;;;;;;5127987;27;20039;-63
2023/07/21 03:53:51;;;;;;;11.23;8.18;;;16.30;99.90;;;;;;5146750;27;20039;-63
2023/07/21 03:56:22;;;;;;;13.55;7.95;;;16.30;99.90;;;;;;5119629;27;20035;-61
2023/07/21 03:58:49;;;;;;;;;;;16.30;99.90;;;;;;5128922;27;20046;-63
2023/07/21 04:01:16;;;;;;;12.90;7.03;;;16.30;99.90;;;;;;5125330;27;20438;-64
2023/07/21 04:03:43;;;;;;;17.05;7.25;;;16.30;99.90;;;;;;5124752;27;20067;-63
2023/07/21 04:06:10;;;;;;;9.45;6.75;;;16.40;99.90;;;;;;5128115;27;20039;-62
2023/07/21 04:08:37;;;;;;;8.88;6.95;;;16.40;99.90;;;;;;5124100;27;20042;-63
2023/07/21 04:11:04;;;;;;;;;;;16.40;99.90;;;;;;5124587;27;20079;-63
2023/07/21 04:13:32;;;;;;;11.18;7.80;;;16.40;99.90;;;;;;5139196;27;19919;-63
2023/07/21 04:15:59;;;;;;;12.52;8.55;;;16.40;99.90;;;;;;5124057;27;20044;-63
2023/07/21 04:18:26;;;;;;;12.60;7.70;;;16.40;99.90;;;;;;5120297;27;20449;-63
2023/07/21 04:20:53;;;;;;;11.30;7.72;;;16.40;99.90;;;;;;5142857;27;20070;-63
2023/07/21 04:23:20;;;;;;;12.48;7.68;;;16.30;99.90;;;;;;5122665;27;20038;-63
2023/07/21 04:25:48;;;;;;;12.00;7.70;;;16.30;99.90;;;;;;5147217;27;20031;-63
2023/07/21 04:28:16;;;;;;;15.13;7.63;;;16.40;99.90;;;;;;5127201;27;20073;-63
2023/07/21 04:30:43;;;;;;;14.02;7.60;;;16.40;99.90;;;;;;5124849;27;20053;-63
2023/07/21 04:33:10;;;;;;;11.75;7.30;;;16.50;99.90;;;;;;5121473;27;20043;-63
2023/07/21 04:35:44;;;;;;;11.48;7.32;;;16.50;99.90;;;;;;5122585;27;20056;-64
2023/07/21 04:38:12;;;;;;;11.57;8.10;;;16.60;99.90;;;;;;5119258;27;20036;-64
2023/07/21 04:40:45;;;;;;;8.77;6.20;;;16.60;99.90;;;;;;5115577;27;20051;-63
2023/07/21 04:43:13;;;;;;;11.02;6.45;;;16.70;99.90;;;;;;5120515;27;20051;-63
2023/07/21 04:45:41;;;;;;;7.80;6.32;;;16.70;99.90;;;;;;5115308;27;20163;-63
2023/07/21 04:48:15;;;;;;;10.15;6.13;;;16.80;99.90;;;;;;5113098;27;20043;-62
2023/07/21 04:50:43;;;;;;;10.45;6.70;;;16.80;99.90;;;;;;5101064;27;20062;-63
2023/07/21 04:53:10;;;;;;;7.65;5.65;;;16.80;99.90;;;;;;5112491;27;20039;-63
2023/07/21 04:55:38;;;;;;;9.00;5.88;;;16.80;99.90;;;;;;5110072;28;20043;-61
2023/07/21 04:58:08;;;;;;;9.70;6.07;;;16.90;99.90;;;;;;5112581;27;20050;-63
2023/07/21 05:00:35;;;;;;;10.75;6.00;;;17.00;99.90;;;;;;5100334;28;20051;-63
2023/07/21 05:03:02;;;;;;;10.50;6.55;;;17.10;99.90;;;;;;5108622;27;20483;-61
2023/07/21 05:05:30;;;;;;;9.88;6.30;;;17.10;99.90;;;;;;5108446;27;20050;-63
2023/07/21 05:08:00;;;;;;;13.18;6.78;;;17.20;99.90;;;;;;5123898;27;20031;-63
2023/07/21 05:10:27;;;;;;;13.05;6.63;;;17.20;99.90;;;;;;5114202;27;20035;-63
2023/07/21 05:12:55;;;;;;;10.38;6.55;;;17.30;99.90;;;;;;5109086;28;20126;-63
2023/07/21 05:15:42;;;;;;;11.07;6.57;;;17.30;99.90;;;;;;5113995;27;20176;-63
2023/07/21 05:18:29;;;;;;;10.05;6.65;;;17.40;99.90;;;;;;5112268;27;20507;-63
2023/07/21 05:21:22;;;;;;;9.93;6.05;;;17.30;99.90;;;;;;5100020;27;20498;-63
2023/07/21 05:23:55;;;;;;;9.45;6.35;;;17.40;99.90;;;;;;5092514;27;20079;-63
2023/07/21 05:26:22;;;;;;;10.07;6.55;;;17.40;99.90;;;;;;5125047;27;20110;-62
2023/07/21 05:28:55;;;;;;;9.27;6.72;;;17.50;99.90;;;;;;5109089;27;20398;-63
2023/07/21 05:31:48;;;;;;;11.48;6.43;;;17.50;99.90;;;;;;5117112;27;20058;-63
2023/07/21 05:34:21;;;;;;;9.35;6.15;;;17.70;99.90;;;;;;5105857;27;20146;-63
2023/07/21 05:36:49;;;;;;;8.68;6.68;;;17.70;99.90;;;;;;5113516;27;20049;-64
2023/07/21 05:39:16;;;;;;;7.07;6.35;;;17.80;99.90;;;;;;5111602;27;20513;-64
2023/07/21 05:41:43;;;;;;;10.82;6.55;;;17.80;99.90;;;;;;5110478;27;20050;-64
2023/07/21 05:44:12;;;;;;;7.80;5.93;;;17.90;99.90;;;;;;5113209;27;20587;-64
2023/07/21 05:46:39;;;;;;;11.23;5.93;;;17.90;99.90;;;;;;5113864;27;20039;-64
2023/07/21 05:49:07;;;;;;;10.68;7.03;;;17.90;99.90;;;;;;5111205;27;20461;-64
2023/07/21 05:51:35;;;;;;;13.70;7.30;;;17.90;99.90;;;;;;5113239;27;20158;-64
2023/07/21 05:54:19;;;;;;;10.10;6.45;;;17.90;99.90;;;;;;5113758;27;20043;-63
2023/07/21 05:56:46;;;;;;;11.32;6.30;;;17.90;99.90;;;;;;5114065;27;20050;-64
2023/07/21 05:59:19;;;;;;;14.10;7.15;;;17.90;99.90;;;;;;5111477;27;20050;-63
2023/07/21 06:01:46;;;;;;;10.57;7.25;;;17.90;99.90;;;;;;5113949;28;20088;-64
2023/07/21 06:04:12;;;;;;;11.50;6.70;;;17.90;99.90;;;;;;5131987;27;20047;-64
2023/07/21 06:06:45;;;;;;;9.70;7.05;;;17.90;99.90;;;;;;5112235;28;20080;-64
2023/07/21 06:09:17;;;;;;;11.50;7.13;;;18.00;99.90;;;;;;5130379;28;20041;-63
2023/07/21 06:12:02;;;;;;;13.27;7.78;;;18.10;99.90;;;;;;5134857;27;20605;-63
2023/07/21 06:14:37;;;;;;;13.07;7.30;;;18.10;99.90;;;;;;5118093;27;20071;-63
2023/07/21 06:17:15;;;;;;;12.45;7.75;;;18.10;99.90;;;;;;5115471;27;20079;-63
2023/07/21 06:19:42;;;;;;;11.88;8.18;;;18.10;99.90;;;;;;5117430;27;20061;-63
2023/07/21 06:22:09;;;;;;;10.27;8.13;;;18.10;99.90;;;;;;5124085;27;20044;-63
2023/07/21 06:24:36;;;;;;;13.73;7.38;;;18.00;99.90;;;;;;5136056;27;20159;-63
2023/07/21 06:27:03;;;;;;;9.30;7.25;;;18.20;99.90;;;;;;5116203;27;20039;-63
2023/07/21 06:29:30;;;;;;;10.50;7.60;;;18.20;99.90;;;;;;5117467;27;20073;-63
2023/07/21 06:31:57;;;;;;;9.52;7.03;;;18.30;99.90;;;;;;5116931;27;20039;-63
2023/07/21 06:34:54;;;;;;;8.85;6.55;;;18.20;99.90;;;;;;5115595;27;20042;-63
2023/07/21 06:37:41;;;;;;;11.20;6.10;;;18.20;99.90;;;;;;5114952;27;20039;-64
2023/07/21 06:40:31;;;;;;;9.32;6.20;;;18.10;99.90;;;;;;5109312;27;20054;-64
2023/07/21 06:43:21;;;;;;;12.77;6.32;;;17.90;99.90;;;;;;5132847;27;20477;-63
2023/07/21 06:46:05;;;;;;;9.40;6.05;;;17.90;99.90;;;;;;5113672;27;20047;-63
2023/07/21 06:49:04;;;;;;;8.50;6.15;;;17.80;99.90;;;;;;5112263;27;20047;-63
2023/07/21 06:51:40;;;;;;;13.38;6.47;;;17.80;99.90;;;;;;5117582;27;20035;-63
2023/07/21 06:54:08;;;;;;;14.05;6.38;;;17.90;99.90;;;;;;5112338;28;20108;-63
2023/07/21 06:56:35;;;;;;;;;;;18.00;99.90;;;;;;5117123;27;20372;-64
2023/07/21 06:59:02;;;;;;;11.77;6.57;;;18.00;99.90;;;;;;5112118;28;20343;-64
2023/07/21 07:01:28;;;;;;;16.45;7.72;;;18.10;99.90;;;;;;5116328;27;20046;-63
2023/07/21 07:03:55;;;;;;;12.40;7.13;;;18.20;99.90;;;;;;5129065;27;20153;-64
2023/07/21 07:06:22;;;;;;;7.95;6.25;;;18.30;99.90;;;;;;5116971;27;20050;-64
2023/07/21 07:08:49;;;;;;;10.95;6.93;;;18.50;99.90;;;;;;5116827;27;20054;-63
2023/07/21 07:11:16;;;;;;;13.27;6.75;;;18.60;99.90;;;;;;5135481;27;20422;-63
2023/07/21 07:13:42;;;;;;;9.95;6.65;;;18.70;99.90;;;;;;5130299;27;20150;-64
2023/07/21 07:16:10;;;;;;;10.18;6.75;;;18.90;99.90;;;;;;5116718;27;20043;-64
2023/07/21 07:18:37;;;;;;;13.20;7.18;;;19.00;99.90;;;;;;5124763;27;20090;-64
2023/07/21 07:21:04;;;;;;;7.68;6.47;;;19.20;99.90;;;;;;5114418;27;20124;-64
2023/07/21 07:23:31;;;;;;;9.88;6.65;;;19.20;99.90;;;;;;5112854;27;20046;-64
2023/07/21 07:26:01;;;;;;;11.05;6.63;;;19.30;99.90;;;;;;5133926;27;20084;-64
2023/07/21 07:28:28;;;;;;;13.98;7.03;;;19.50;99.90;;;;;;5129525;27;20040;-64
2023/07/21 07:30:55;;;;;;;11.60;6.47;;;19.80;99.90;;;;;;5134465;27;20027;-64
2023/07/21 07:33:22;;;;;;;9.57;6.50;;;19.80;99.90;;;;;;5132792;27;20035;-64
2023/07/21 07:35:53;;;;;;;11.70;7.28;;;19.80;99.90;;;;;;5133754;27;20135;-64
2023/07/21 07:38:24;;;;;;;11.15;6.82;;;20.00;99.90;;;;;;5125185;27;20196;-64
2023/07/21 07:40:50;;;;;;;12.75;7.00;;;20.10;99.90;;;;;;5130557;27;20502;-64
2023/07/21 07:43:17;;;;;;;9.65;6.60;;;20.20;99.90;;;;;;5133946;27;20043;-64
2023/07/21 07:45:44;;;;;;;11.38;6.90;;;20.40;99.90;;;;;;5134115;27;20031;-64
2023/07/21 07:48:11;;;;;;;6.63;5.32;;;20.60;99.90;;;;;;5130142;27;20035;-64
2023/07/21 07:50:39;;;;;;;7.90;6.03;;;20.70;99.90;;;;;;5129911;27;20035;-64
2023/07/21 07:53:06;;;;;;;10.55;6.68;;;20.90;99.90;;;;;;5134186;27;20084;-64
2023/07/21 07:55:37;;;;;;;;;;;20.90;99.90;;;;;;5133908;27;20504;-64
2023/07/21 07:58:04;;;;;;;11.77;6.35;;;20.90;99.90;;;;;;5134014;27;19923;-64
2023/07/21 08:00:33;;;;;;;10.00;6.35;;;21.10;99.90;;;;;;5111740;27;20046;-64
2023/07/21 08:03:00;;;;;;;8.27;6.75;;;21.10;99.90;;;;;;5128849;27;20062;-64
2023/07/21 08:05:26;;;;;;;10.82;6.40;;;21.00;99.90;;;;;;5132811;27;20051;-64
2023/07/21 08:07:53;;;;;;;9.00;5.68;;;20.80;99.90;;;;;;5127009;27;20132;-64
2023/07/21 08:10:20;;;;;;;8.57;5.88;;;20.50;99.90;;;;;;5132928;27;20091;-64
2023/07/21 08:12:47;;;;;;;8.90;6.60;;;20.30;99.90;;;;;;5133402;27;20046;-64
2023/07/21 08:15:15;;;;;;;9.60;6.60;;;20.10;99.90;;;;;;5126066;27;20063;-64
2023/07/21 08:17:42;;;;;;;12.88;6.45;;;19.90;99.90;;;;;;5123821;27;20039;-64
2023/07/21 08:20:09;;;;;;;10.75;7.00;;;19.80;99.90;;;;;;5133437;27;20039;-64
2023/07/21 08:22:36;;;;;;;10.65;7.03;;;19.60;99.90;;;;;;5131605;27;20533;-64
2023/07/21 08:25:05;;;;;;;;;;;19.50;99.90;;;;;;5134028;27;20062;-64
2023/07/21 08:27:35;;;;;;;9.98;7.05;;;19.40;99.90;;;;;;5132345;27;19932;-64
2023/07/21 08:30:04;;;;;;;11.57;7.18;;;19.20;99.90;;;;;;5132532;27;20457;-64
2023/07/21 08:32:31;;;;;;;17.38;8.68;;;19.10;99.90;;;;;;5132437;27;20403;-63
2023/07/21 08:34:58;;;;;;;9.43;6.70;;;19.10;99.90;;;;;;5114345;27;20487;-64
2023/07/21 08:37:25;;;;;;;12.65;7.15;;;19.10;99.90;;;;;;5133012;27;20043;-64
2023/07/21 08:39:52;;;;;;;7.70;6.57;;;19.10;99.90;;;;;;5130186;27;20049;-64
2023/07/21 08:42:20;;;;;;;12.15;6.85;;;19.00;99.90;;;;;;5132938;27;20043;-64
2023/07/21 08:44:47;;;;;;;9.77;6.15;;;19.00;99.90;;;;;;5132976;27;20034;-64
2023/07/21 08:47:15;;;;;;;9.00;6.57;;;19.00;99.90;;;;;;5130724;27;20051;-64
2023/07/21 08:49:41;;;;;;;;;;;18.90;99.90;;;;;;5132829;27;20036;-64
2023/07/21 08:52:08;;;;;;;11.30;6.40;;;18.70;99.90;;;;;;5132083;27;19920;-63
2023/07/21 08:54:35;;;;;;;10.32;7.00;;;18.60;99.90;;;;;;5132672;27;20031;-64
2023/07/21 08:57:02;;;;;;;12.38;7.18;;;18.50;99.90;;;;;;5131123;27;20039;-64
2023/07/21 08:59:29;;;;;;;9.05;7.47;;;18.40;99.90;;;;;;5113159;27;20039;-64
2023/07/21 09:01:56;;;;;;;16.92;8.98;;;18.40;99.90;;;;;;5114616;27;20064;-64
2023/07/21 09:04:24;;;;;;;12.43;9.18;;;18.30;99.90;;;;;;5132099;27;20047;-64
2023/07/21 09:06:57;;;;;;;13.60;8.88;;;18.30;99.90;;;;;;5129346;27;20045;-64
2023/07/21 09:09:27;;;;;;;14.98;8.85;;;18.20;99.90;;;;;;5132288;27;20047;-63
2023/07/21 09:12:02;;;;;;;13.80;9.23;;;18.10;99.90;;;;;;5130178;27;20106;-64
2023/07/21 09:14:41;;;;;;;12.57;8.10;;;18.10;99.90;;;;;;5132488;27;20039;-64
2023/07/21 09:17:09;;;;;;;11.55;8.77;;;18.10;99.90;;;;;;5131498;27;20047;-64
2023/07/21 09:19:41;;;;;;;13.63;8.85;;;18.20;99.90;;;;;;5129518;27;20065;-64
2023/07/21 09:22:08;;;;;;;17.77;9.63;;;18.20;99.90;;;;;;5132503;27;20399;-64
2023/07/21 09:24:38;;;;;;;18.52;11.10;;;18.10;99.90;;;;;;5112963;27;20119;-64
2023/07/21 09:27:14;;;;;;;20.60;11.63;;;18.00;99.90;;;;;;5125409;27;20043;-64
2023/07/21 09:29:42;;;;;;;11.15;8.55;;;18.00;99.90;;;;;;5130994;27;20058;-64
2023/07/21 09:32:15;;;;;;;11.68;7.80;;;17.80;99.90;;;;;;5132043;27;20406;-64
2023/07/21 09:34:58;;;;;;;14.82;7.93;;;17.60;99.90;;;;;;5131885;27;20461;-64
2023/07/21 09:37:27;;;;;;;11.48;5.30;;;17.40;99.90;;;;;;5131160;27;20407;-64
2023/07/21 09:40:00;;;;;;;8.90;4.78;;;17.30;99.90;;;;;;5130086;27;20045;-64
2023/07/21 09:42:28;;;;;;;15.15;4.82;;;17.20;99.90;;;;;;5128460;27;20054;-63
2023/07/21 09:44:57;;;;;;;11.25;4.07;;;17.10;99.90;;;;;;5131853;27;20403;-64
2023/07/21 09:47:25;;;;;;;10.07;4.60;;;17.10;99.90;;;;;;5131198;27;20484;-64
2023/07/21 09:49:54;;;;;;;7.68;3.33;;;16.90;99.90;;;;;;5129896;27;20088;-64
2023/07/21 09:52:23;;;;;;;7.55;3.20;;;16.90;99.90;;;;;;5125262;27;20054;-64
2023/07/21 09:55:07;;;;;;;9.93;3.00;;;16.90;99.90;;;;;;5132036;27;20043;-64
2023/07/21 09:57:36;;;;;;;7.40;3.65;;;16.80;99.90;;;;;;5130775;27;20035;-64
2023/07/21 10:00:09;;;;;;;9.88;2.92;;;16.80;99.90;;;;;;5131683;27;20054;-64
2023/07/21 10:02:42;;;;;;;9.02;3.20;;;16.90;99.90;;;;;;5122838;27;20126;-64
2023/07/21 10:05:10;;;;;;;5.20;2.67;;;17.00;99.90;;;;;;5132041;27;20509;-64
2023/07/21 10:07:49;;;;;;;5.00;2.60;;;17.20;99.90;;;;;;5131793;27;20085;-64
2023/07/21 10:10:18;;;;;;;5.10;2.83;;;17.30;99.90;;;;;;5125221;27;20047;-64
2023/07/21 10:12:51;;;;;;;5.35;3.33;;;17.20;99.90;;;;;;5131339;28;20039;-64
2023/07/21 10:15:21;;;;;;;5.28;2.50;;;17.30;99.90;;;;;;5130752;28;20070;-64
2023/07/21 10:17:56;;;;;;;3.97;2.25;;;17.40;99.90;;;;;;5131593;28;20050;-64
2023/07/21 10:20:45;;;;;;;7.80;2.60;;;17.20;99.90;;;;;;5128661;27;20674;-63
2023/07/21 10:23:17;;;;;;;4.20;2.70;;;17.20;99.90;;;;;;5125477;28;20050;-64
2023/07/21 10:25:56;;;;;;;3.03;2.50;;;17.10;99.90;;;;;;5130042;28;20076;-64
2023/07/21 10:28:42;;;;;;;6.75;4.65;;;17.10;99.90;;;;;;5130589;28;20047;-63
2023/07/21 10:31:21;;;;;;;5.30;3.78;;;17.30;99.90;;;;;;5125691;28;20057;-64
2023/07/21 10:34:06;;;;;;;6.03;3.55;;;17.40;99.90;;;;;;5128711;27;20910;-64
2023/07/21 10:36:42;;;;;;;7.07;4.05;;;17.40;99.90;;;;;;5129632;27;20434;-64
2023/07/21 10:39:11;;;;;;;6.45;3.70;;;17.60;99.90;;;;;;5138007;27;20039;-63
2023/07/21 10:41:41;;;;;;;5.88;3.90;;;17.80;99.90;;;;;;5129600;27;20069;-64
2023/07/21 10:44:12;;;;;;;6.70;4.50;;;17.80;99.90;;;;;;5113444;28;20043;-64
2023/07/21 10:46:43;;;;;;;6.75;4.47;;;17.90;99.90;;;;;;5113183;28;20049;-64
2023/07/21 10:49:15;;;;;;;5.70;4.32;;;18.00;99.90;;;;;;5122840;28;20035;-64
2023/07/21 10:51:44;;;;;;;8.85;4.68;;;18.00;99.90;;;;;;5131748;28;20043;-63
2023/07/21 10:54:12;;;;;;;5.78;4.22;;;17.90;99.90;;;;;;5131271;27;20036;-64
2023/07/21 10:56:46;;;;;;;6.60;5.15;;;17.90;99.90;;;;;;5127251;27;20034;-64
2023/07/21 10:59:15;;;;;;;8.07;3.95;;;17.90;99.90;;;;;;5143392;27;20118;-64
2023/07/21 11:01:44;;;;;;;7.05;4.47;;;17.80;99.90;;;;;;5149697;27;20039;-64
2023/07/21 11:04:13;;;;;;;16.23;5.93;;;17.80;99.90;;;;;;5145217;27;20044;-64
2023/07/21 11:06:46;;;;;;;8.52;4.97;;;17.90;99.90;;;;;;5136633;27;20439;-64
2023/07/21 11:09:13;;;;;;;10.25;5.35;;;17.80;99.90;;;;;;5135418;27;20051;-64
2023/07/21 11:11:47;;;;;;;9.18;5.20;;;17.80;99.90;;;;;;5118439;27;20031;-64
2023/07/21 11:14:20;;;;;;;12.38;5.22;;;17.90;99.90;;;;;;5141383;27;20043;-64
2023/07/21 11:16:55;;;;;;;7.68;4.85;;;17.80;99.90;;;;;;5133725;27;20031;-64
2023/07/21 11:19:24;;;;;;;5.32;3.65;;;17.80;99.90;;;;;;5132787;27;20346;-64
2023/07/21 11:21:51;;;;;;;5.40;3.78;;;17.70;99.90;;;;;;5133977;27;20039;-64
2023/07/21 11:24:30;;;;;;;9.43;4.20;;;17.70;99.90;;;;;;5131119;27;20063;-64
2023/07/21 11:27:09;;;;;;;6.07;3.92;;;17.90;99.90;;;;;;5126250;27;20501;-64
2023/07/21 11:29:40;;;;;;;8.38;4.35;;;18.00;99.90;;;;;;5132396;27;20081;-64
2023/07/21 11:32:24;;;;;;;6.43;4.00;;;18.10;99.90;;;;;;5134751;27;20051;-64
2023/07/21 11:35:03;;;;;;;8.90;4.97;;;18.20;99.90;;;;;;5133546;27;20035;-64
2023/07/21 11:37:44;;;;;;;7.78;4.45;;;18.20;99.90;;;;;;5134179;27;20050;-64
2023/07/21 11:40:18;;;;;;;7.03;4.05;;;18.20;99.90;;;;;;5127410;27;20031;-64
2023/07/21 11:42:47;;;;;;;7.80;4.07;;;18.10;99.90;;;;;;5132210;27;20047;-64
2023/07/21 11:45:33;;;;;;;5.53;3.63;;;18.10;99.90;;;;;;5134171;27;20077;-64
2023/07/21 11:48:14;;;;;;;6.38;2.85;;;18.30;99.90;;;;;;5132718;27;20475;-64
2023/07/21 11:50:52;;;;;;;3.85;2.13;;;18.30;99.90;;;;;;5134165;27;20046;-64
2023/07/21 11:53:18;;;;;;;;;;;18.60;99.90;;;;;;5133466;27;20129;-64
2023/07/21 11:55:45;;;;;;;4.13;2.28;;;18.70;99.90;;;;;;5134084;27;19925;-64
2023/07/21 11:58:12;;;;;;;4.35;2.10;;;18.60;99.90;;;;;;5129120;27;20035;-64
2023/07/21 12:00:39;;;;;;;2.83;2.00;;;18.40;99.90;;;;;;5134053;27;20047;-64
2023/07/21 12:03:06;;;;;;;5.18;2.03;;;18.50;99.90;;;;;;5134448;27;20038;-64
2023/07/21 12:05:33;;;;;;;4.72;2.63;;;18.60;99.90;;;;;;5132237;27;20047;-64
2023/07/21 12:08:00;;;;;;;4.38;2.10;;;18.60;99.90;;;;;;5133027;27;20057;-64
2023/07/21 12:10:27;;;;;;;5.30;2.50;;;18.60;99.90;;;;;;5133039;27;20126;-64
2023/07/21 12:12:54;;;;;;;4.28;2.22;;;18.80;99.90;;;;;;5113940;27;20047;-64
2023/07/21 12:15:21;;;;;;;4.22;2.60;;;19.00;99.90;;;;;;5131791;27;20050;-64
2023/07/21 12:17:48;;;;;;;4.55;2.47;;;19.00;99.90;;;;;;5133620;27;20110;-64
2023/07/21 12:20:17;;;;;;;3.17;2.47;;;19.20;99.90;;;;;;5133038;27;20399;-64
2023/07/21 12:22:44;;;;;;;4.55;2.25;;;19.50;99.90;;;;;;5127215;27;20043;-64
2023/07/21 12:25:11;;;;;;;3.53;2.38;;;19.80;99.90;;;;;;5133708;27;20043;-64
2023/07/21 12:27:38;;;;;;;3.38;2.25;;;20.00;99.90;;;;;;5131975;27;20050;-64
2023/07/21 12:30:10;;;;;;;3.63;2.42;;;20.20;99.90;;;;;;5106538;27;20051;-64
2023/07/21 12:32:37;;;;;;;5.70;2.38;;;20.50;99.90;;;;;;5132417;27;20092;-64
2023/07/21 12:35:05;;;;;;;3.42;2.50;;;20.90;99.90;;;;;;5123664;27;20042;-63
2023/07/21 12:37:33;;;;;;;4.60;2.30;;;21.30;99.90;;;;;;5133464;27;20039;-64
2023/07/21 12:40:00;;;;;;;3.60;2.35;;;21.60;99.90;;;;;;5132524;27;20039;-64
2023/07/21 12:42:29;;;;;;;3.35;2.40;;;22.00;99.90;;;;;;5111539;27;20048;-64
2023/07/21 12:44:56;;;;;;;3.83;2.40;;;22.30;99.90;;;;;;5130102;27;20067;-64
2023/07/21 12:47:23;;;;;;;6.35;2.95;;;22.70;99.90;;;;;;5133175;27;20047;-64
2023/07/21 12:49:50;;;;;;;4.57;3.20;;;22.80;99.90;;;;;;5129140;27;20039;-64
2023/07/21 12:52:16;;;;;;;4.47;3.20;;;22.60;99.90;;;;;;5132485;27;20035;-64
2023/07/21 12:54:43;;;;;;;5.28;2.80;;;22.40;99.90;;;;;;5132424;27;20402;-64
2023/07/21 12:57:12;;;;;;;4.05;3.08;;;22.20;99.90;;;;;;5128989;27;20462;-64
2023/07/21 12:59:39;;;;;;;5.40;2.72;;;22.00;99.90;;;;;;5132540;27;20039;-63